Bei Facebook empfehlenBei Twitter postenGoogle plusPinterest

Das Wetter im Erzgebirge am 26.08.2017

Wetter und Klima am 26.08.2017 Holzhau im Erzgebirge (630m ü.NN)
Letzte gemessene Temperatur und Uhrzeit der Messung23:45:00 Uhr15.10 °C
Temperatur (Maximum / Höchstwert) und Uhrzeit der Messung15:30:00 Uhr24.90 °C
Temperatur (Minimum / Tiefstwert) und Uhrzeit der Messung23:30:0014.90 °C
Errechneter Absolutwert der Temperaturschwankungen zwischen Tmin und Tmax des Tages10.00 K
Errechnete Tagesmitteltemperatur20.33830 °C
Gesamt - Niederschlag des Tages (in flüssiger Form)0.52 Liter / m²
Luftdruck (Maximum / Höchstwert) und Zeitpunkt der Messung12:30:00 Uhr1014.50 hPa
Luftdruck (Minimum / Tiefstwert) und Zeitpunkt der Messung20:00:00 Uhr1012.40 hPa
Errechneter Absolutwert der Luftdruckschwankungen des Tages2.10 hPa
Höchste gemessene Windgeschwindigkeit und Uhrzeit der Messung13:15:00 Uhr28.44 km/h
Errechnete Windhäufigkeit in Relation zu den Messwerten des Tages8.51064 %
Niedrigste Windkühle (Windchill) und Zeitpunkt der Messung23:30:00 Uhr14.90 °C
Taupunkt (Maximum / Höchstwert) und Uhrzeit der Messung14:00:00 Uhr19.70 °C
Taupunkt (Minimum / Tiefstwert) und Uhrzeit der Messung23:15:0013.60 °C
Anzahl der automatisch eingelesenen Messwerte 47

Detaillierte Wetter- und Klima- Messwerte für den 26.08.2017 in Holzhau im Erzgebirge (630m ü.NN)
ZeitTemperaturLuftdruckRel. LuftfeuchteWindWindrichtungWindchillTaupunktNiederschlag l/m²
23:45:0015.10 °C1013.00 hPa93.00 %14.00 °C0.52
23:30:0014.90 °C1013.10 hPa93.00 %13.80 °C0.52
23:15:0014.90 °C1012.90 hPa92.00 %13.60 °C0.52
23:00:0015.10 °C1013.30 hPa92.00 %13.80 °C0.52
22:45:0015.20 °C1013.20 hPa92.00 %13.90 °C 
22:30:0015.40 °C1013.10 hPa91.00 %13.90 °C 
22:15:0015.60 °C1013.40 hPa91.00 %14.10 °C 
22:00:0015.90 °C1013.40 hPa91.00 %14.40 °C 
21:45:0016.10 °C1013.20 hPa91.00 %14.60 °C 
21:30:0016.40 °C1013.30 hPa90.00 %14.80 °C 
21:15:0016.60 °C1013.00 hPa90.00 %15.00 °C 
21:00:0016.80 °C1012.90 hPa89.00 %15.00 °C 
20:45:0017.10 °C1012.60 hPa89.00 %15.30 °C 
20:30:0017.50 °C1013.00 hPa87.00 %15.30 °C 
20:15:0018.10 °C1012.60 hPa86.00 %15.70 °C 
20:00:0018.80 °C1012.40 hPa85.00 %16.20 °C 
19:45:0019.10 °C1012.70 hPa85.00 %16.50 °C 
19:30:0019.50 °C1013.00 hPa83.00 %16.50 °C 
19:15:0019.90 °C1012.70 hPa81.00 %16.50 °C 
19:00:0020.50 °C1012.60 hPa79.00 %16.70 °C 
18:45:0021.60 °C1012.90 hPa76.00 %17.20 °C 
18:30:0022.60 °C1013.00 hPa73.00 %17.50 °C 
18:15:0023.00 °C1013.10 hPa71.00 %17.50 °C 
18:00:0023.50 °C1013.00 hPa70.00 %17.70 °C 
17:45:0023.80 °C1013.20 hPa70.00 %18.00 °C 
17:30:0023.90 °C1013.30 hPa68.00 %14.40 km/hSW23.90 °C17.60 °C 
17:15:0024.70 °C1013.60 hPa67.00 %18.20 °C 
17:00:0024.60 °C1013.70 hPa67.00 %18.10 °C 
16:45:0024.50 °C1013.90 hPa66.00 %17.70 °C 
16:30:0024.40 °C1013.70 hPa66.00 %17.60 °C 
16:15:0024.40 °C1013.90 hPa64.00 %17.10 °C 
16:00:0024.80 °C1013.70 hPa64.00 %17.50 °C 
15:45:0024.80 °C1014.00 hPa64.00 %17.50 °C 
15:30:0024.90 °C1014.20 hPa64.00 %10.44 km/hSSO24.90 °C17.60 °C 
15:15:0024.90 °C1014.00 hPa64.00 %17.60 °C 
15:00:0024.60 °C1014.00 hPa67.00 %18.10 °C 
14:45:0024.20 °C1014.10 hPa72.00 %18.80 °C 
14:30:0023.90 °C1014.00 hPa72.00 %18.50 °C 
14:15:0023.40 °C1014.00 hPa75.00 %18.70 °C 
14:00:0022.90 °C1014.10 hPa82.00 %19.70 °C 
13:45:0021.60 °C1014.20 hPa85.00 %3.96 km/hOSO21.60 °C19.00 °C 
13:30:0020.90 °C1014.30 hPa85.00 %18.30 °C 
13:15:0020.10 °C1014.20 hPa90.00 %28.44 km/hNO20.90 °C18.40 °C 
13:00:0019.40 °C1014.20 hPa91.00 %17.90 °C 
12:45:0019.30 °C1014.40 hPa92.00 %18.00 °C 
12:30:0018.90 °C1014.50 hPa94.00 %17.90 °C 
12:15:0017.80 °C1014.50 hPa95.00 %17.00 °C 

Permanenter Link zu dieser Seite: Wetter im Erzgebirge am 26.08.2017
Performance-Info: Die Erstellung der Seite / Statistik(en) / Tabelle(n) erforderte 5 Datenbankserver-Abfrage(n) und dauerte 100 Millisekunden. (Dieser Messwert ist von der Gesamt-Auslastung des Servers abhängig.)
Erzgebirge - Wetter | Erzgebirge - Wetter (Mobilgeräte) | Komplette Klimadatenbank